createdAt,value
2019-05-11T00:00:35.149Z,8.20
2019-05-11T00:01:35.099Z,8.20
2019-05-11T00:02:35.069Z,8.05
2019-05-11T00:03:35.038Z,8.12
2019-05-11T00:04:35.009Z,7.97
2019-05-11T00:05:35.000Z,8.05
2019-05-11T00:06:34.944Z,7.80
2019-05-11T00:07:34.912Z,7.79
2019-05-11T00:08:34.882Z,7.80
2019-05-11T00:09:35.673Z,7.80
2019-05-11T00:10:35.675Z,7.77
2019-05-11T00:11:34.808Z,7.93
2019-05-11T00:12:34.764Z,7.90
2019-05-11T00:13:34.735Z,7.82
2019-05-11T00:14:34.697Z,7.76
2019-05-11T00:15:34.659Z,7.85
2019-05-11T00:16:34.656Z,7.73
2019-05-11T00:17:34.600Z,7.76
2019-05-11T00:18:34.567Z,7.75
2019-05-11T00:19:34.788Z,7.72
2019-05-11T00:20:34.512Z,7.77
2019-05-11T00:21:34.500Z,7.75
2019-05-11T00:22:35.103Z,7.61
2019-05-11T00:23:34.410Z,7.69
2019-05-11T00:24:34.377Z,7.67
2019-05-11T00:25:34.383Z,7.60
2019-05-11T00:26:34.347Z,7.58
2019-05-11T00:27:34.316Z,7.54
2019-05-11T00:28:34.377Z,7.61
2019-05-11T00:29:34.228Z,7.67
2019-05-11T00:30:34.206Z,7.66
2019-05-11T00:31:41.597Z,7.63
2019-05-11T00:32:34.127Z,7.60
2019-05-11T00:33:34.193Z,7.58
2019-05-11T00:34:34.068Z,7.57
2019-05-11T00:35:34.036Z,7.50
2019-05-11T00:36:34.029Z,7.51
2019-05-11T00:37:33.968Z,7.50
2019-05-11T00:38:33.939Z,7.45
2019-05-11T00:39:33.942Z,7.36
2019-05-11T00:40:33.874Z,7.43
2019-05-11T00:41:33.864Z,7.50
2019-05-11T00:42:33.820Z,7.61
2019-05-11T00:43:33.787Z,7.54
2019-05-11T00:44:33.767Z,7.56
2019-05-11T00:45:34.681Z,7.50
2019-05-11T00:46:33.717Z,7.58
2019-05-11T00:47:33.656Z,7.51
2019-05-11T00:48:33.627Z,7.58
2019-05-11T00:49:33.669Z,7.54
2019-05-11T00:50:39.294Z,7.53
2019-05-11T00:51:33.563Z,7.58
2019-05-11T00:52:33.548Z,7.56
2019-05-11T00:53:33.492Z,7.69
2019-05-11T00:54:33.448Z,7.58
2019-05-11T00:55:33.410Z,7.56
2019-05-11T00:56:33.406Z,7.63
2019-05-11T00:57:33.347Z,7.60
2019-05-11T00:58:33.317Z,7.63
2019-05-11T00:59:33.295Z,7.67
2019-05-11T01:00:33.291Z,7.56
2019-05-11T01:01:33.245Z,7.56
2019-05-11T01:02:33.187Z,7.47
2019-05-11T01:03:33.181Z,7.43
2019-05-11T01:04:33.156Z,7.38
2019-05-11T01:05:33.087Z,7.45
2019-05-11T01:06:33.129Z,7.45
2019-05-11T01:07:33.030Z,7.35
2019-05-11T01:08:32.998Z,7.31
2019-05-11T01:09:32.972Z,7.35
2019-05-11T01:10:41.639Z,7.36
2019-05-11T01:11:32.929Z,7.36
2019-05-11T01:12:32.955Z,7.36
2019-05-11T01:13:34.849Z,7.43
2019-05-11T01:14:34.322Z,7.47
2019-05-11T01:15:34.760Z,7.38
2019-05-11T01:16:34.393Z,7.45
2019-05-11T01:17:34.777Z,7.51
2019-05-11T01:18:34.724Z,7.47
2019-05-11T01:19:35.365Z,7.43
2019-05-11T01:20:33.199Z,7.51
2019-05-11T01:21:33.107Z,7.38
2019-05-11T01:22:36.460Z,7.32
2019-05-11T01:23:33.104Z,7.32
2019-05-11T01:24:32.666Z,7.32
2019-05-11T01:25:32.504Z,7.28
2019-05-11T01:26:34.497Z,7.28
2019-05-11T01:27:33.109Z,7.21
2019-05-11T01:28:33.616Z,7.23
2019-05-11T01:29:35.396Z,7.32
2019-05-11T01:30:32.484Z,7.18
2019-05-11T01:31:34.106Z,7.11
2019-05-11T01:32:33.606Z,7.07
2019-05-11T01:33:36.119Z,7.07
2019-05-11T01:34:35.617Z,7.03
2019-05-11T01:35:33.296Z,7.03
2019-05-11T01:36:35.393Z,6.93
2019-05-11T01:37:32.253Z,6.95
2019-05-11T01:38:33.217Z,6.93
2019-05-11T01:39:32.804Z,6.81
2019-05-11T01:40:37.248Z,6.78
2019-05-11T01:41:34.664Z,6.85
2019-05-11T01:42:33.715Z,6.82
2019-05-11T01:43:31.918Z,6.84
2019-05-11T01:44:32.096Z,6.78
2019-05-11T01:45:32.734Z,6.79
2019-05-11T01:46:32.798Z,6.84
2019-05-11T01:47:40.728Z,6.89
2019-05-11T01:48:31.734Z,6.93
2019-05-11T01:49:31.696Z,6.81
2019-05-11T01:50:31.659Z,6.70
2019-05-11T01:51:31.628Z,6.75
2019-05-11T01:52:31.624Z,6.69
2019-05-11T01:53:31.569Z,6.74
2019-05-11T01:54:31.538Z,6.66
2019-05-11T01:55:31.503Z,6.64
2019-05-11T01:56:31.472Z,6.60
2019-05-11T01:57:31.479Z,6.62
2019-05-11T01:58:31.408Z,6.51
2019-05-11T01:59:31.394Z,6.56
2019-05-11T02:00:31.341Z,6.46
2019-05-11T02:01:31.315Z,6.44
2019-05-11T02:02:31.311Z,6.35
2019-05-11T02:03:31.245Z,6.52
2019-05-11T02:04:31.222Z,6.51
2019-05-11T02:05:31.184Z,6.52
2019-05-11T02:06:31.169Z,6.54
2019-05-11T02:07:31.148Z,6.49
2019-05-11T02:08:31.091Z,6.54
2019-05-11T02:09:31.053Z,6.46
2019-05-11T02:10:31.026Z,6.36
2019-05-11T02:11:31.003Z,6.45
2019-05-11T02:12:30.980Z,6.38
2019-05-11T02:13:30.927Z,6.41
2019-05-11T02:14:30.892Z,6.41
2019-05-11T02:15:30.863Z,6.39
2019-05-11T02:16:30.833Z,6.31
2019-05-11T02:17:30.832Z,6.30
2019-05-11T02:18:30.765Z,6.31
2019-05-11T02:19:30.751Z,6.30
2019-05-11T02:20:30.701Z,6.33
2019-05-11T02:21:30.693Z,6.30
2019-05-11T02:22:30.666Z,6.20
2019-05-11T02:23:30.603Z,6.27
2019-05-11T02:24:30.570Z,6.22
2019-05-11T02:25:30.551Z,6.19
2019-05-11T02:26:30.507Z,6.09
2019-05-11T02:27:30.501Z,6.30
2019-05-11T02:28:30.451Z,6.14
2019-05-11T02:29:30.411Z,6.27
2019-05-11T02:30:30.377Z,6.33
2019-05-11T02:31:30.352Z,6.38
2019-05-11T02:32:30.331Z,6.36
2019-05-11T02:33:30.279Z,6.39
2019-05-11T02:34:30.246Z,6.33
2019-05-11T02:35:30.230Z,6.38
2019-05-11T02:36:30.185Z,6.30
2019-05-11T02:37:30.174Z,6.30
2019-05-11T02:38:30.113Z,6.30
2019-05-11T02:39:30.094Z,6.24
2019-05-11T02:40:30.059Z,6.31
2019-05-11T02:41:36.344Z,6.28
2019-05-11T02:42:29.991Z,6.22
2019-05-11T02:43:29.984Z,6.27
2019-05-11T02:44:29.935Z,6.26
2019-05-11T02:45:29.892Z,6.24
2019-05-11T02:46:29.867Z,6.27
2019-05-11T02:47:29.842Z,6.31
2019-05-11T02:48:29.825Z,6.28
2019-05-11T02:49:29.768Z,6.17
2019-05-11T02:50:29.735Z,6.17
2019-05-11T02:51:29.698Z,6.26
2019-05-11T02:52:29.714Z,6.26
2019-05-11T02:53:29.757Z,6.28
2019-05-11T02:54:29.601Z,6.30
2019-05-11T02:55:29.571Z,6.27
2019-05-11T02:56:29.537Z,6.30
2019-05-11T02:57:29.504Z,6.33
2019-05-11T02:58:29.498Z,6.44
2019-05-11T02:59:30.079Z,6.36
2019-05-11T03:00:29.405Z,6.46
2019-05-11T03:01:29.381Z,6.42
2019-05-11T03:02:29.346Z,6.46
2019-05-11T03:03:29.385Z,6.64
2019-05-11T03:04:29.286Z,6.60
2019-05-11T03:05:29.264Z,6.62
2019-05-11T03:06:29.210Z,6.66
2019-05-11T03:07:29.186Z,6.78
2019-05-11T03:08:29.187Z,6.81
2019-05-11T03:09:29.128Z,6.93
2019-05-11T03:10:29.087Z,6.87
2019-05-11T03:11:29.055Z,6.97
2019-05-11T03:12:29.023Z,7.06
2019-05-11T03:13:29.039Z,7.02
2019-05-11T03:14:28.961Z,7.06
2019-05-11T03:15:28.935Z,7.07
2019-05-11T03:16:28.902Z,7.11
2019-05-11T03:17:28.950Z,7.17
2019-05-11T03:18:28.869Z,7.18
2019-05-11T03:19:28.797Z,7.25
2019-05-11T03:20:28.775Z,7.21
2019-05-11T03:21:28.842Z,7.32
2019-05-11T03:22:28.705Z,7.36
2019-05-11T03:23:28.704Z,7.47
2019-05-11T03:24:28.642Z,7.45
2019-05-11T03:25:28.632Z,7.48
2019-05-11T03:26:28.615Z,7.50
2019-05-11T03:27:28.573Z,7.53
2019-05-11T03:28:28.548Z,7.56
2019-05-11T03:29:28.489Z,7.50
2019-05-11T03:30:28.463Z,7.58
2019-05-11T03:31:28.433Z,7.63
2019-05-11T03:32:28.441Z,7.63
2019-05-11T03:33:28.413Z,7.69
2019-05-11T03:34:28.334Z,7.63
2019-05-11T03:35:28.309Z,7.72
2019-05-11T03:36:28.270Z,7.61
2019-05-11T03:37:28.235Z,7.70
2019-05-11T03:38:28.228Z,7.69
2019-05-11T03:39:28.171Z,7.70
2019-05-11T03:40:28.148Z,7.82
2019-05-11T03:41:28.115Z,7.82
2019-05-11T03:42:28.076Z,7.90
2019-05-11T03:43:28.072Z,7.82
2019-05-11T03:44:28.012Z,7.88
2019-05-11T03:45:27.984Z,7.97
2019-05-11T03:46:27.949Z,8.05
2019-05-11T03:47:27.931Z,7.97
2019-05-11T03:48:27.925Z,8.01
2019-05-11T03:49:27.859Z,8.08
2019-05-11T03:50:27.834Z,8.10
2019-05-11T03:51:27.801Z,8.09
2019-05-11T03:52:27.763Z,8.09
2019-05-11T03:53:27.766Z,8.13
2019-05-11T03:54:27.700Z,8.18
2019-05-11T03:55:27.680Z,8.20
2019-05-11T03:56:27.637Z,8.28
2019-05-11T03:57:27.612Z,8.34
2019-05-11T03:58:27.585Z,8.33
2019-05-11T03:59:27.575Z,8.34
2019-05-11T04:00:27.545Z,8.44
2019-05-11T04:01:27.495Z,8.45
2019-05-11T04:02:27.452Z,8.55
2019-05-11T04:03:27.440Z,8.51
2019-05-11T04:04:27.419Z,8.55
2019-05-11T04:05:27.367Z,8.56
2019-05-11T04:06:27.341Z,8.70
2019-05-11T04:07:27.300Z,8.66
2019-05-11T04:08:27.289Z,8.76
2019-05-11T04:09:27.267Z,8.84
2019-05-11T04:10:27.238Z,8.89
2019-05-11T04:11:27.184Z,8.89
2019-05-11T04:12:34.551Z,9.08
2019-05-11T04:13:27.145Z,8.91
2019-05-11T04:14:27.128Z,9.04
2019-05-11T04:15:27.077Z,9.16
2019-05-11T04:16:27.030Z,9.16
2019-05-11T04:17:27.037Z,9.23
2019-05-11T04:18:26.982Z,9.37
2019-05-11T04:19:26.960Z,9.28
2019-05-11T04:20:26.934Z,9.43
2019-05-11T04:21:26.910Z,9.40
2019-05-11T04:22:26.847Z,9.55
2019-05-11T04:23:26.816Z,9.55
2019-05-11T04:24:26.824Z,9.64
2019-05-11T04:25:26.764Z,9.62
2019-05-11T04:26:26.730Z,9.68
2019-05-11T04:27:26.691Z,9.76
2019-05-11T04:28:26.738Z,9.77
2019-05-11T04:29:26.682Z,9.74
2019-05-11T04:30:26.689Z,9.76
2019-05-11T04:31:26.577Z,9.76
2019-05-11T04:32:26.547Z,9.79
2019-05-11T04:33:26.513Z,9.73
2019-05-11T04:34:26.510Z,9.82
2019-05-11T04:35:26.460Z,9.76
2019-05-11T04:36:26.424Z,9.77
2019-05-11T04:37:26.416Z,9.87
2019-05-11T04:38:26.370Z,9.84
2019-05-11T04:39:26.365Z,9.98
2019-05-11T04:40:26.314Z,9.99
2019-05-11T04:41:26.300Z,9.94
2019-05-11T04:42:26.254Z,10.04
2019-05-11T04:43:26.220Z,9.99
2019-05-11T04:44:26.212Z,9.94
2019-05-11T04:45:26.157Z,10.02
2019-05-11T04:46:26.125Z,9.97
2019-05-11T04:47:26.098Z,9.99
2019-05-11T04:48:26.071Z,9.92
2019-05-11T04:49:26.060Z,10.04
2019-05-11T04:50:26.007Z,10.01
2019-05-11T04:51:25.984Z,10.02
2019-05-11T04:52:25.950Z,10.04
2019-05-11T04:53:25.970Z,10.15
2019-05-11T04:54:25.923Z,9.99
2019-05-11T04:55:25.857Z,10.16
2019-05-11T04:56:25.832Z,10.13
2019-05-11T04:57:25.801Z,10.25
2019-05-11T04:58:25.787Z,10.49
2019-05-11T04:59:25.771Z,10.40
2019-05-11T05:00:25.725Z,10.57
2019-05-11T05:01:25.679Z,10.60
2019-05-11T05:02:27.326Z,10.71
2019-05-11T05:03:39.746Z,10.87
2019-05-11T05:04:25.617Z,10.90
2019-05-11T05:05:25.563Z,10.96
2019-05-11T05:06:25.535Z,10.86
2019-05-11T05:07:25.509Z,10.92
2019-05-11T05:08:26.457Z,10.90
2019-05-11T05:09:25.540Z,10.99
2019-05-11T05:10:25.416Z,11.23
2019-05-11T05:11:30.393Z,11.52
2019-05-11T05:12:25.355Z,11.84
2019-05-11T05:13:29.301Z,11.99
2019-05-11T05:14:25.298Z,12.12
2019-05-11T05:15:25.295Z,12.13
2019-05-11T05:16:25.247Z,12.10
2019-05-11T05:17:25.208Z,12.09
2019-05-11T05:18:25.181Z,12.03
2019-05-11T05:19:25.152Z,11.99
2019-05-11T05:20:25.145Z,11.97
2019-05-11T05:21:25.114Z,11.80
2019-05-11T05:22:27.964Z,11.70
2019-05-11T05:23:25.033Z,11.70
2019-05-11T05:24:25.001Z,11.78
2019-05-11T05:25:25.005Z,11.88
2019-05-11T05:26:24.948Z,12.07
2019-05-11T05:27:24.921Z,12.15
2019-05-11T05:28:24.892Z,12.18
2019-05-11T05:29:24.856Z,12.29
2019-05-11T05:30:24.863Z,12.35
2019-05-11T05:31:24.801Z,12.39
2019-05-11T05:32:24.778Z,12.31
2019-05-11T05:33:24.763Z,12.28
2019-05-11T05:34:24.724Z,12.28
2019-05-11T05:35:24.723Z,12.32
2019-05-11T05:36:24.736Z,12.32
2019-05-11T05:37:24.822Z,12.36
2019-05-11T05:38:24.635Z,12.40
2019-05-11T05:39:24.591Z,12.37
2019-05-11T05:40:24.572Z,12.46
2019-05-11T05:41:24.518Z,12.45
2019-05-11T05:42:24.499Z,12.39
2019-05-11T05:43:28.349Z,12.43
2019-05-11T05:44:27.531Z,12.43
2019-05-11T05:45:24.431Z,12.42
2019-05-11T05:46:24.377Z,12.58
2019-05-11T05:47:31.172Z,12.70
2019-05-11T05:48:24.325Z,12.75
2019-05-11T05:49:24.295Z,12.76
2019-05-11T05:50:25.290Z,12.85
2019-05-11T05:51:24.236Z,13.11
2019-05-11T05:52:24.209Z,13.23
2019-05-11T05:53:24.184Z,13.31
2019-05-11T05:54:24.151Z,13.42
2019-05-11T05:55:24.151Z,13.65
2019-05-11T05:56:24.098Z,13.72
2019-05-11T05:57:24.075Z,13.75
2019-05-11T05:58:24.076Z,13.90
2019-05-11T05:59:24.024Z,14.11
2019-05-11T06:00:24.011Z,14.25
2019-05-11T06:01:23.960Z,14.41
2019-05-11T06:02:23.949Z,14.32
2019-05-11T06:03:23.916Z,14.33
2019-05-11T06:04:23.875Z,14.44
2019-05-11T06:05:23.875Z,14.48
2019-05-11T06:06:23.845Z,14.58
2019-05-11T06:07:23.840Z,14.63
2019-05-11T06:08:23.835Z,14.62
2019-05-11T06:09:23.761Z,14.73
2019-05-11T06:10:23.740Z,14.79
2019-05-11T06:11:23.707Z,14.73
2019-05-11T06:12:23.670Z,14.81
2019-05-11T06:13:23.635Z,14.96
2019-05-11T06:14:23.629Z,14.85
2019-05-11T06:15:23.631Z,15.06
2019-05-11T06:16:23.567Z,15.02
2019-05-11T06:17:23.547Z,14.70
2019-05-11T06:18:23.535Z,14.55
2019-05-11T06:19:23.496Z,14.51
2019-05-11T06:20:23.508Z,14.53
2019-05-11T06:21:24.438Z,14.47
2019-05-11T06:22:23.426Z,14.29
2019-05-11T06:23:23.402Z,13.92
2019-05-11T06:24:23.378Z,13.93
2019-05-11T06:25:23.402Z,13.87
2019-05-11T06:26:23.379Z,13.78
2019-05-11T06:27:23.359Z,13.67
2019-05-11T06:28:23.363Z,13.68
2019-05-11T06:29:23.220Z,13.68
2019-05-11T06:30:23.193Z,13.72
2019-05-11T06:31:23.196Z,13.83
2019-05-11T06:32:23.145Z,13.83
2019-05-11T06:33:23.107Z,13.89
2019-05-11T06:34:23.082Z,13.75
2019-05-11T06:35:23.057Z,13.77
2019-05-11T06:36:23.054Z,13.89
2019-05-11T06:37:23.032Z,13.89
2019-05-11T06:38:22.989Z,14.05
2019-05-11T06:39:22.951Z,14.22
2019-05-11T06:40:22.943Z,14.25
2019-05-11T06:41:22.922Z,14.32
2019-05-11T06:42:22.872Z,14.37
2019-05-11T06:43:22.847Z,14.29
2019-05-11T06:44:22.816Z,14.36
2019-05-11T06:45:22.789Z,14.33
2019-05-11T06:46:22.788Z,14.53
2019-05-11T06:47:22.737Z,14.70
2019-05-11T06:48:22.711Z,14.82
2019-05-11T06:49:22.684Z,14.60
2019-05-11T06:50:22.655Z,14.79
2019-05-11T06:51:22.651Z,15.00
2019-05-11T06:52:22.599Z,14.88
2019-05-11T06:53:22.575Z,15.09
2019-05-11T06:54:22.561Z,15.33
2019-05-11T06:55:22.526Z,15.33
2019-05-11T06:56:22.532Z,15.33
2019-05-11T06:57:22.482Z,15.27
2019-05-11T06:58:22.444Z,15.51
2019-05-11T06:59:22.426Z,15.57
2019-05-11T07:00:22.400Z,15.46
2019-05-11T07:01:22.399Z,15.42
2019-05-11T07:02:22.341Z,15.54
2019-05-11T07:03:22.322Z,15.47
2019-05-11T07:04:22.290Z,15.39
2019-05-11T07:05:22.267Z,15.36
2019-05-11T07:06:25.753Z,15.46
2019-05-11T07:07:22.208Z,15.72
2019-05-11T07:08:22.182Z,15.84
2019-05-11T07:09:22.189Z,16.09
2019-05-11T07:10:22.140Z,16.13
2019-05-11T07:11:22.144Z,16.24
2019-05-11T07:12:22.224Z,16.46
2019-05-11T07:13:22.062Z,16.53
2019-05-11T07:14:22.035Z,16.68
2019-05-11T07:15:22.009Z,16.74
2019-05-11T07:16:22.022Z,16.53
2019-05-11T07:17:21.966Z,16.66
2019-05-11T07:18:21.931Z,16.72
2019-05-11T07:19:21.913Z,16.71
2019-05-11T07:20:21.883Z,16.72
2019-05-11T07:21:21.881Z,16.79
2019-05-11T07:22:21.842Z,16.83
2019-05-11T07:23:21.807Z,16.87
2019-05-11T07:24:21.792Z,16.54
2019-05-11T07:25:21.766Z,16.29
2019-05-11T07:26:21.757Z,16.28
2019-05-11T07:27:21.722Z,16.16
2019-05-11T07:28:21.687Z,16.21
2019-05-11T07:29:21.673Z,16.49
2019-05-11T07:30:21.692Z,16.21
2019-05-11T07:31:21.638Z,16.29
2019-05-11T07:32:25.783Z,16.08
2019-05-11T07:33:21.566Z,15.83
2019-05-11T07:34:21.543Z,15.98
2019-05-11T07:35:21.518Z,15.98
2019-05-11T07:36:21.487Z,15.98
2019-05-11T07:37:24.256Z,15.95
2019-05-11T07:38:21.438Z,16.04
2019-05-11T07:39:21.410Z,15.98
2019-05-11T07:40:21.397Z,16.00
2019-05-11T07:41:21.371Z,15.98
2019-05-11T07:42:21.369Z,15.86
2019-05-11T07:43:21.319Z,15.76
2019-05-11T07:44:34.964Z,15.94
2019-05-11T07:45:21.268Z,16.08
2019-05-11T07:46:21.247Z,16.02
2019-05-11T07:47:21.252Z,16.02
2019-05-11T07:48:21.199Z,16.16
2019-05-11T07:49:23.413Z,16.24
2019-05-11T07:50:21.144Z,16.39
2019-05-11T07:51:21.125Z,16.26
2019-05-11T07:52:21.116Z,16.31
2019-05-11T07:53:28.790Z,16.38
2019-05-11T07:54:21.164Z,16.24
2019-05-11T07:55:21.020Z,16.28
2019-05-11T07:56:20.987Z,16.41
2019-05-11T07:57:20.988Z,16.49
2019-05-11T07:58:20.942Z,16.49
2019-05-11T07:59:20.911Z,16.28
2019-05-11T08:00:20.946Z,16.57
2019-05-11T08:01:20.871Z,16.68
2019-05-11T08:02:20.863Z,16.75
2019-05-11T08:03:20.813Z,16.93
2019-05-11T08:04:21.714Z,16.99
2019-05-11T08:05:20.775Z,17.24
2019-05-11T08:06:20.741Z,17.34
2019-05-11T08:07:20.734Z,17.57
2019-05-11T08:08:20.700Z,17.65
2019-05-11T08:09:20.667Z,17.60
2019-05-11T08:10:20.682Z,17.56
2019-05-11T08:11:20.616Z,17.36
2019-05-11T08:12:20.627Z,17.42
2019-05-11T08:13:20.572Z,17.67
2019-05-11T08:14:20.551Z,17.89
2019-05-11T08:15:20.519Z,18.20
2019-05-11T08:16:20.498Z,18.40
2019-05-11T08:17:20.508Z,18.66
2019-05-11T08:18:20.454Z,18.77
2019-05-11T08:19:20.433Z,18.92
2019-05-11T08:20:20.404Z,18.95
2019-05-11T08:21:20.433Z,19.00
2019-05-11T08:22:22.873Z,18.68
2019-05-11T08:23:20.337Z,18.78
2019-05-11T08:24:20.314Z,18.74
2019-05-11T08:25:20.295Z,18.70
2019-05-11T08:26:20.277Z,18.66
2019-05-11T08:27:20.280Z,18.83
2019-05-11T08:28:20.256Z,18.96
2019-05-11T08:29:20.201Z,19.18
2019-05-11T08:30:20.182Z,19.30
2019-05-11T08:31:20.169Z,19.44
2019-05-11T08:32:20.159Z,19.56
2019-05-11T08:33:20.117Z,19.64
2019-05-11T08:34:20.095Z,19.66
2019-05-11T08:35:20.072Z,19.73
2019-05-11T08:36:20.047Z,19.86
2019-05-11T08:37:20.053Z,19.94
2019-05-11T08:38:20.005Z,19.66
2019-05-11T08:39:19.994Z,19.30
2019-05-11T08:40:19.963Z,19.15
2019-05-11T08:41:19.939Z,19.15
2019-05-11T08:42:19.917Z,19.49
2019-05-11T08:43:19.931Z,19.64
2019-05-11T08:44:19.878Z,19.71
2019-05-11T08:45:24.020Z,19.92
2019-05-11T08:46:19.835Z,20.14
2019-05-11T08:47:19.887Z,20.03
2019-05-11T08:48:19.814Z,19.66
2019-05-11T08:49:19.783Z,19.37
2019-05-11T08:50:19.765Z,19.66
2019-05-11T08:51:19.728Z,19.70
2019-05-11T08:52:19.710Z,19.73
2019-05-11T08:53:19.711Z,19.73
2019-05-11T08:54:19.667Z,19.73
2019-05-11T08:55:20.304Z,19.58
2019-05-11T08:56:19.623Z,19.47
2019-05-11T08:57:19.611Z,19.37
2019-05-11T08:58:19.750Z,19.51
2019-05-11T08:59:19.557Z,19.66
2019-05-11T09:00:19.544Z,19.55
2019-05-11T09:01:19.525Z,19.41
2019-05-11T09:02:19.498Z,19.34
2019-05-11T09:03:19.510Z,19.26
2019-05-11T09:04:19.456Z,19.31
2019-05-11T09:05:19.456Z,19.15
2019-05-11T09:06:19.426Z,18.92
2019-05-11T09:07:19.402Z,18.86
2019-05-11T09:08:19.399Z,18.90
2019-05-11T09:09:19.349Z,18.84
2019-05-11T09:10:19.405Z,18.99
2019-05-11T09:11:19.372Z,18.83
2019-05-11T09:12:19.290Z,18.77
2019-05-11T09:13:19.298Z,18.93
2019-05-11T09:14:19.242Z,19.12
2019-05-11T09:15:32.465Z,19.22
2019-05-11T09:16:19.298Z,19.36
2019-05-11T09:17:19.192Z,19.34
2019-05-11T09:18:19.181Z,19.36
2019-05-11T09:19:19.140Z,19.37
2019-05-11T09:20:19.215Z,19.22
2019-05-11T09:21:19.289Z,19.33
2019-05-11T09:22:19.176Z,19.30
2019-05-11T09:23:33.575Z,19.30
2019-05-11T09:24:19.107Z,19.34
2019-05-11T09:25:19.007Z,18.99
2019-05-11T09:26:18.985Z,18.86
2019-05-11T09:27:18.969Z,18.96
2019-05-11T09:28:18.969Z,18.90
2019-05-11T09:29:18.936Z,19.02
2019-05-11T09:30:18.897Z,18.99
2019-05-11T09:31:19.022Z,18.95
2019-05-11T09:32:18.859Z,19.09
2019-05-11T09:33:20.732Z,19.18
2019-05-11T09:34:18.832Z,19.34
2019-05-11T09:35:19.203Z,19.24
2019-05-11T09:36:18.844Z,19.15
2019-05-11T09:37:18.748Z,19.09
2019-05-11T09:38:18.757Z,18.86
2019-05-11T09:39:18.707Z,18.65
2019-05-11T09:40:18.700Z,18.58
2019-05-11T09:41:18.682Z,18.70
2019-05-11T09:42:18.638Z,18.78
2019-05-11T09:43:18.642Z,18.83
2019-05-11T09:44:18.596Z,18.66
2019-05-11T09:45:18.972Z,18.68
2019-05-11T09:46:18.985Z,18.78
2019-05-11T09:47:19.052Z,18.75
2019-05-11T09:48:18.535Z,18.66
2019-05-11T09:49:18.714Z,18.80
2019-05-11T09:50:18.519Z,18.80
2019-05-11T09:51:18.697Z,18.93
2019-05-11T09:52:18.527Z,18.99
2019-05-11T09:53:18.404Z,18.86
2019-05-11T09:54:18.455Z,18.83
2019-05-11T09:55:19.010Z,18.83
2019-05-11T09:56:18.623Z,18.86
2019-05-11T09:57:18.574Z,19.04
2019-05-11T09:58:19.764Z,19.14
2019-05-11T09:59:18.294Z,19.16
2019-05-11T10:00:18.244Z,19.16
2019-05-11T10:01:18.560Z,19.16
2019-05-11T10:02:20.959Z,19.16
2019-05-11T10:03:18.858Z,19.33
2019-05-11T10:04:18.285Z,19.47
2019-05-11T10:05:18.969Z,19.52
2019-05-11T10:06:18.929Z,19.40
2019-05-11T10:07:18.299Z,19.44
2019-05-11T10:08:18.389Z,19.54
2019-05-11T10:09:19.247Z,19.54
2019-05-11T10:10:18.840Z,19.67
2019-05-11T10:11:18.979Z,19.69
2019-05-11T10:12:18.227Z,19.64
2019-05-11T10:13:18.571Z,19.82
2019-05-11T10:14:18.784Z,19.91
2019-05-11T10:15:18.736Z,19.86
2019-05-11T10:16:18.169Z,19.99
2019-05-11T10:17:18.302Z,19.96
2019-05-11T10:18:18.630Z,20.03
2019-05-11T10:19:18.085Z,19.95
2019-05-11T10:20:18.322Z,19.88
2019-05-11T10:21:18.967Z,19.96
2019-05-11T10:22:18.562Z,20.07
2019-05-11T10:23:18.558Z,20.11
2019-05-11T10:24:17.916Z,20.09
2019-05-11T10:25:18.281Z,19.67
2019-05-11T10:26:18.695Z,19.22
2019-05-11T10:27:18.922Z,18.86
2019-05-11T10:28:17.986Z,19.14
2019-05-11T10:29:18.314Z,19.24
2019-05-11T10:30:18.599Z,19.44
2019-05-11T10:31:18.233Z,19.67
2019-05-11T10:32:18.267Z,19.74
2019-05-11T10:33:18.822Z,19.85
2019-05-11T10:34:18.106Z,19.77
2019-05-11T10:35:18.399Z,19.67
2019-05-11T10:36:18.854Z,19.66
2019-05-11T10:37:17.773Z,19.44
2019-05-11T10:38:17.945Z,19.49
2019-05-11T10:39:18.603Z,19.66
2019-05-11T10:40:18.984Z,19.63
2019-05-11T10:41:18.083Z,19.64
2019-05-11T10:42:17.989Z,19.64
2019-05-11T10:43:18.367Z,19.74
2019-05-11T10:44:18.749Z,19.73
2019-05-11T10:45:18.036Z,19.77
2019-05-11T10:46:22.980Z,19.73
2019-05-11T10:47:18.479Z,19.69
2019-05-11T10:48:17.831Z,19.81
2019-05-11T10:49:18.465Z,19.84
2019-05-11T10:50:18.762Z,19.77
2019-05-11T10:51:18.327Z,19.66
2019-05-11T10:52:17.984Z,19.59
2019-05-11T10:53:18.490Z,19.40
2019-05-11T10:54:18.705Z,19.34
2019-05-11T10:55:19.309Z,19.27
2019-05-11T10:56:17.850Z,19.18
2019-05-11T10:57:18.886Z,19.24
2019-05-11T10:58:18.322Z,19.41
2019-05-11T10:59:18.729Z,19.44
2019-05-11T11:00:17.793Z,19.36
2019-05-11T11:01:18.233Z,19.40
2019-05-11T11:02:18.516Z,19.49
2019-05-11T11:03:17.880Z,19.44
2019-05-11T11:04:18.402Z,19.34
2019-05-11T11:05:18.773Z,19.02
2019-05-11T11:06:18.864Z,18.95
2019-05-11T11:07:19.317Z,18.95
2019-05-11T11:08:18.530Z,19.18
2019-05-11T11:09:17.802Z,19.36
2019-05-11T11:10:18.140Z,19.40
2019-05-11T11:11:18.539Z,19.21
2019-05-11T11:12:18.704Z,19.31
2019-05-11T11:13:18.749Z,19.40
2019-05-11T11:14:18.096Z,19.47
2019-05-11T11:15:18.324Z,19.49
2019-05-11T11:16:34.669Z,19.58
2019-05-11T11:17:18.928Z,19.66
2019-05-11T11:18:18.767Z,18.98
2019-05-11T11:19:18.323Z,18.92
2019-05-11T11:20:18.632Z,18.70
2019-05-11T11:21:22.400Z,18.65
2019-05-11T11:22:35.454Z,18.68
2019-05-11T11:23:17.727Z,18.55
2019-05-11T11:24:17.955Z,18.62
2019-05-11T11:25:17.998Z,18.62
2019-05-11T11:26:18.407Z,18.80
2019-05-11T11:27:18.088Z,19.02
2019-05-11T11:28:17.551Z,19.11
2019-05-11T11:29:17.858Z,18.96
2019-05-11T11:30:18.115Z,18.98
2019-05-11T11:31:18.390Z,19.11
2019-05-11T11:32:18.264Z,19.29
2019-05-11T11:33:18.210Z,19.31
2019-05-11T11:34:18.578Z,18.96
2019-05-11T11:35:18.505Z,18.98
2019-05-11T11:36:17.950Z,19.12
2019-05-11T11:37:17.525Z,19.27
2019-05-11T11:38:18.055Z,18.88
2019-05-11T11:39:16.125Z,18.77
2019-05-11T11:40:17.725Z,18.88
2019-05-11T11:41:17.878Z,18.95
2019-05-11T11:42:17.898Z,19.08
2019-05-11T11:43:18.038Z,18.29
2019-05-11T11:44:18.321Z,18.03
2019-05-11T11:45:18.119Z,17.76
2019-05-11T11:46:15.976Z,17.64
2019-05-11T11:47:20.981Z,17.64
2019-05-11T11:48:15.984Z,17.56
2019-05-11T11:49:15.945Z,17.36
2019-05-11T11:50:17.804Z,17.36
2019-05-11T11:51:18.411Z,17.60
2019-05-11T11:52:15.848Z,17.52
2019-05-11T11:53:15.825Z,17.56
2019-05-11T11:54:17.962Z,17.85
2019-05-11T11:55:15.793Z,18.07
2019-05-11T11:56:15.743Z,18.33
2019-05-11T11:57:18.060Z,18.56
2019-05-11T11:58:20.123Z,18.68
2019-05-11T11:59:17.684Z,18.84
2019-05-11T12:00:18.125Z,19.09
2019-05-11T12:01:15.658Z,19.19
2019-05-11T12:02:15.617Z,19.31
2019-05-11T12:03:15.586Z,18.93
2019-05-11T12:04:15.568Z,18.75
2019-05-11T12:05:17.538Z,18.99
2019-05-11T12:06:17.957Z,18.98
2019-05-11T12:07:17.760Z,19.22
2019-05-11T12:08:15.542Z,19.41
2019-05-11T12:09:18.018Z,19.71
2019-05-11T12:10:15.434Z,19.66
2019-05-11T12:11:15.435Z,19.24
2019-05-11T12:12:15.392Z,18.88
2019-05-11T12:13:15.368Z,18.60
2019-05-11T12:14:15.345Z,18.52
2019-05-11T12:15:17.618Z,18.52
2019-05-11T12:16:17.763Z,18.49
2019-05-11T12:17:15.278Z,18.47
2019-05-11T12:18:15.256Z,18.58
2019-05-11T12:19:15.242Z,18.40
2019-05-11T12:20:15.215Z,18.29
2019-05-11T12:21:15.214Z,18.05
2019-05-11T12:22:15.170Z,18.05
2019-05-11T12:23:15.146Z,17.92
2019-05-11T12:24:15.126Z,17.72
2019-05-11T12:25:15.105Z,17.72
2019-05-11T12:26:17.527Z,17.60
2019-05-11T12:27:15.060Z,17.42
2019-05-11T12:28:15.038Z,17.46
2019-05-11T12:29:15.015Z,17.23
2019-05-11T12:30:14.992Z,17.08
2019-05-11T12:31:14.997Z,17.01
2019-05-11T12:32:14.944Z,17.01
2019-05-11T12:33:14.920Z,16.99
2019-05-11T12:34:14.899Z,17.11
2019-05-11T12:35:14.877Z,17.01
2019-05-11T12:36:14.877Z,17.01
2019-05-11T12:37:14.835Z,16.91
2019-05-11T12:38:14.808Z,16.89
2019-05-11T12:39:14.785Z,16.78
2019-05-11T12:40:14.759Z,16.75
2019-05-11T12:41:14.765Z,16.69
2019-05-11T12:42:14.710Z,16.66
2019-05-11T12:43:14.690Z,16.46
2019-05-11T12:44:14.661Z,16.32
2019-05-11T12:45:14.644Z,16.39
2019-05-11T12:46:14.642Z,16.50
2019-05-11T12:47:22.191Z,16.41
2019-05-11T12:48:14.570Z,16.17
2019-05-11T12:49:14.542Z,15.98
2019-05-11T12:50:14.517Z,15.67
2019-05-11T12:51:14.578Z,15.35
2019-05-11T12:52:14.471Z,15.07
2019-05-11T12:53:14.447Z,15.03
2019-05-11T12:54:14.421Z,14.99
2019-05-11T12:55:14.432Z,14.88
2019-05-11T12:56:14.394Z,14.73
2019-05-11T12:57:14.345Z,14.63
2019-05-11T12:58:14.322Z,14.60
2019-05-11T12:59:14.294Z,14.44
2019-05-11T13:00:14.270Z,14.28
2019-05-11T13:01:14.271Z,14.22